Time;durP1;ratioP1;P1;durP2;ratioP2;P2;SDS_P1;SDS_P2;PMS_P1;PMS_P2;Temp;Humidity;BMP_temperature;BMP_pressure;BME280_temperature;BME280_humidity;BME280_pressure;Samples;Min_cycle;Max_cycle;Signal;HPM_P1;HPM_P2
2023/05/27 00:01:23;;;;;;;7.50;5.20;;;16.70;1.00;;;;;;5135727;27;20309;-46
2023/05/27 00:03:49;;;;;;;8.63;5.43;;;16.60;1.00;;;;;;5134662;27;20167;-47
2023/05/27 00:06:15;;;;;;;7.70;5.70;;;16.60;1.00;;;;;;5134597;27;20179;-46
2023/05/27 00:08:41;;;;;;;10.90;6.17;;;16.50;1.00;;;;;;5134508;27;20467;-48
2023/05/27 00:11:06;;;;;;;8.20;5.60;;;16.50;1.00;;;;;;5131883;27;20468;-46
2023/05/27 00:13:32;;;;;;;12.63;6.40;;;16.50;1.00;;;;;;5133498;27;20175;-48
2023/05/27 00:15:57;;;;;;;7.50;5.97;;;16.40;1.00;;;;;;5133235;27;20515;-49
2023/05/27 00:18:23;;;;;;;10.63;6.57;;;16.40;1.00;;;;;;5132894;27;20179;-47
2023/05/27 00:20:49;;;;;;;9.50;5.70;;;16.30;1.00;;;;;;5134712;27;20581;-46
2023/05/27 00:23:14;;;;;;;10.47;6.73;;;16.30;1.00;;;;;;5116675;27;20243;-47
2023/05/27 00:25:40;;;;;;;7.37;5.07;;;16.30;1.00;;;;;;5136161;27;20623;-47
2023/05/27 00:28:06;;;;;;;10.53;5.13;;;16.30;1.00;;;;;;5134711;27;20441;-47
2023/05/27 00:30:32;;;;;;;8.70;5.83;;;16.30;1.00;;;;;;5136083;27;20254;-47
2023/05/27 00:32:57;;;;;;;8.87;5.33;;;16.20;1.00;;;;;;5135640;27;20307;-48
2023/05/27 00:35:24;;;;;;;6.80;4.73;;;16.30;1.00;;;;;;5136741;27;20199;-47
2023/05/27 00:37:50;;;;;;;8.87;4.93;;;16.20;1.00;;;;;;5137669;27;20910;-48
2023/05/27 00:40:19;;;;;;;10.90;4.80;;;16.20;1.00;;;;;;5119173;28;20249;-49
2023/05/27 00:42:45;;;;;;;6.77;4.53;;;16.20;1.00;;;;;;5117462;27;20270;-48
2023/05/27 00:45:11;;;;;;;8.97;5.00;;;16.20;1.00;;;;;;5136964;27;20503;-48
2023/05/27 00:47:37;;;;;;;8.07;4.80;;;16.10;1.00;;;;;;5136350;27;20182;-49
2023/05/27 00:50:03;;;;;;;8.67;5.10;;;16.10;1.00;;;;;;5136128;27;20721;-47
2023/05/27 00:52:29;;;;;;;8.27;5.30;;;16.00;1.00;;;;;;5135787;27;20564;-46
2023/05/27 00:54:56;;;;;;;6.43;4.57;;;15.90;1.00;;;;;;5134766;27;20436;-46
2023/05/27 00:57:22;;;;;;;10.30;5.30;;;15.90;1.00;;;;;;5136406;28;20411;-47
2023/05/27 00:59:47;;;;;;;7.23;4.53;;;15.90;1.00;;;;;;5115193;28;20803;-46
2023/05/27 01:02:14;;;;;;;6.53;4.70;;;15.80;1.00;;;;;;5116735;28;20486;-46
2023/05/27 01:04:42;;;;;;;9.23;6.10;;;15.80;1.00;;;;;;5116487;28;20471;-48
2023/05/27 01:07:41;;;;;;;10.23;4.53;;;15.70;1.00;;;;;;5115210;28;20425;-50
2023/05/27 01:10:28;;;;;;;10.87;4.63;;;15.60;1.00;;;;;;5112763;28;20456;-47
2023/05/27 01:13:00;;;;;;;6.53;4.33;;;15.60;1.00;;;;;;5116824;28;20509;-48
2023/05/27 01:15:27;;;;;;;6.93;4.43;;;15.60;1.00;;;;;;5116611;28;20821;-47
2023/05/27 01:17:56;;;;;;;9.60;5.10;;;15.70;1.00;;;;;;5115194;28;20788;-48
2023/05/27 01:20:22;;;;;;;6.93;4.70;;;15.60;1.00;;;;;;5115418;28;20567;-47
2023/05/27 01:22:52;;;;;;;8.83;4.27;;;15.60;1.00;;;;;;5120069;28;20421;-48
2023/05/27 01:25:19;;;;;;;10.20;5.10;;;15.60;1.00;;;;;;5118164;28;20425;-49
2023/05/27 01:27:45;;;;;;;8.53;5.30;;;15.70;1.00;;;;;;5118883;28;20420;-45
2023/05/27 01:30:11;;;;;;;10.53;4.90;;;15.60;1.00;;;;;;5119160;28;20791;-47
2023/05/27 01:32:51;;;;;;;7.83;4.27;;;15.50;1.00;;;;;;5118566;28;20458;-47
2023/05/27 01:35:52;;;;;;;6.17;4.13;;;15.40;1.00;;;;;;5118479;28;20421;-46
2023/05/27 01:38:19;;;;;;;8.80;4.93;;;15.40;1.00;;;;;;5056515;28;20713;-46
2023/05/27 01:40:46;;;;;;;7.60;4.33;;;15.30;1.00;;;;;;5103415;28;20641;-48
2023/05/27 01:43:12;;;;;;;10.23;4.97;;;15.40;1.00;;;;;;5119316;28;20695;-49
2023/05/27 01:45:37;;;;;;;7.97;5.60;;;15.30;1.00;;;;;;5119094;28;20421;-45
2023/05/27 01:48:04;;;;;;;6.13;4.33;;;15.30;1.00;;;;;;5118213;28;20849;-48
2023/05/27 01:50:30;;;;;;;6.83;4.80;;;15.20;1.00;;;;;;5119094;27;20187;-46
2023/05/27 01:52:56;;;;;;;8.00;5.03;;;15.20;1.00;;;;;;5118844;28;20439;-47
2023/05/27 01:55:22;;;;;;;7.80;4.50;;;15.20;1.00;;;;;;5120344;28;20811;-46
2023/05/27 01:57:48;;;;;;;10.40;5.03;;;15.20;1.00;;;;;;5120320;28;20420;-46
2023/05/27 02:00:15;;;;;;;7.53;4.73;;;15.20;1.00;;;;;;5132390;27;20242;-47
2023/05/27 02:02:41;;;;;;;10.30;5.00;;;15.20;1.00;;;;;;5140397;27;20183;-47
2023/05/27 02:05:07;;;;;;;8.90;4.80;;;15.20;1.00;;;;;;5139037;27;20488;-47
2023/05/27 02:07:32;;;;;;;8.87;4.80;;;15.20;1.00;;;;;;5137956;27;20217;-47
2023/05/27 02:09:58;;;;;;;7.13;4.87;;;15.20;1.00;;;;;;5139220;27;20541;-47
2023/05/27 02:12:24;;;;;;;12.03;5.20;;;15.30;1.00;;;;;;5138778;27;20490;-47
2023/05/27 02:14:50;;;;;;;8.23;4.60;;;15.30;1.00;;;;;;5138719;27;20175;-46
2023/05/27 02:17:16;;;;;;;9.73;4.77;;;15.40;1.00;;;;;;5139182;27;20428;-47
2023/05/27 02:19:43;;;;;;;10.87;6.10;;;15.40;1.00;;;;;;5120637;27;20496;-47
2023/05/27 02:22:08;;;;;;;10.97;5.97;;;15.40;1.00;;;;;;5139047;27;20472;-49
2023/05/27 02:24:34;;;;;;;12.13;4.80;;;15.40;1.00;;;;;;5139009;27;20424;-46
2023/05/27 02:27:01;;;;;;;9.03;4.87;;;15.40;1.00;;;;;;5139371;27;20442;-47
2023/05/27 02:29:26;;;;;;;9.07;5.60;;;15.40;1.00;;;;;;5139465;27;20482;-47
2023/05/27 02:31:52;;;;;;;8.17;4.90;;;15.40;1.00;;;;;;5085275;27;20429;-47
2023/05/27 02:37:52;;;;;;;6.30;4.60;;;15.40;1.00;;;;;;4862798;27;20456;-48
2023/05/27 02:40:28;;;;;;;10.10;5.10;;;15.40;1.00;;;;;;5137787;27;20467;-46
2023/05/27 02:42:53;;;;;;;7.33;4.90;;;15.40;1.00;;;;;;5137581;27;20742;-47
2023/05/27 02:45:19;;;;;;;9.17;4.40;;;15.30;1.00;;;;;;5120165;27;20472;-47
2023/05/27 02:47:45;;;;;;;7.27;4.37;;;15.20;1.00;;;;;;5123098;27;20175;-48
2023/05/27 02:50:10;;;;;;;7.50;5.17;;;15.10;1.00;;;;;;5138962;27;20446;-48
2023/05/27 02:52:36;;;;;;;12.80;4.80;;;15.10;1.00;;;;;;5137142;27;20175;-46
2023/05/27 02:58:23;;;;;;;11.30;4.90;;;15.00;1.00;;;;;;5137561;27;20263;-46
2023/05/27 03:00:49;;;;;;;8.67;4.90;;;15.00;1.00;;;;;;5138428;27;20897;-46
2023/05/27 03:03:14;;;;;;;9.73;5.83;;;15.00;1.00;;;;;;5138733;27;20183;-48
2023/05/27 03:05:40;;;;;;;8.03;4.70;;;15.00;1.00;;;;;;5137182;27;20171;-47
2023/05/27 03:08:06;;;;;;;10.80;5.00;;;15.00;1.00;;;;;;5138380;27;20179;-48
2023/05/27 03:10:34;;;;;;;8.83;4.67;;;15.00;1.00;;;;;;5139510;27;20197;-46
2023/05/27 03:13:00;;;;;;;10.63;4.87;;;15.00;1.00;;;;;;5138557;27;20480;-47
2023/05/27 03:15:29;;;;;;;7.10;4.80;;;14.90;1.00;;;;;;5138851;27;20429;-46
2023/05/27 03:17:55;;;;;;;9.93;4.80;;;14.90;1.00;;;;;;5138806;27;20217;-47
2023/05/27 03:20:21;;;;;;;8.90;4.97;;;14.90;1.00;;;;;;5138598;27;20459;-48
2023/05/27 03:22:47;;;;;;;10.03;4.80;;;14.90;1.00;;;;;;5138670;27;20513;-46
2023/05/27 03:25:13;;;;;;;5.87;4.50;;;14.90;1.00;;;;;;5138704;27;20420;-47
2023/05/27 03:27:40;;;;;;;8.73;4.50;;;14.80;1.00;;;;;;5138614;27;20500;-48
2023/05/27 03:30:07;;;;;;;11.30;5.30;;;14.80;1.00;;;;;;5138265;27;20833;-46
2023/05/27 03:32:33;;;;;;;9.93;4.40;;;14.90;1.00;;;;;;5139344;27;20794;-48
2023/05/27 03:34:58;;;;;;;11.30;4.57;;;14.90;1.00;;;;;;5138797;27;20484;-47
2023/05/27 03:37:24;;;;;;;8.87;4.27;;;14.90;1.00;;;;;;5137520;27;20497;-48
2023/05/27 03:39:49;;;;;;;7.30;5.17;;;14.90;1.00;;;;;;5138439;27;20556;-47
2023/05/27 03:42:15;;;;;;;8.73;5.63;;;14.90;1.00;;;;;;5137662;27;20223;-49
2023/05/27 03:44:41;;;;;;;7.87;4.10;;;14.90;1.00;;;;;;5119935;27;20167;-49
2023/05/27 03:47:06;;;;;;;9.73;5.10;;;14.90;1.00;;;;;;5137306;27;20191;-46
2023/05/27 03:49:32;;;;;;;9.63;5.20;;;14.90;1.00;;;;;;5137748;27;20178;-47
2023/05/27 03:51:58;;;;;;;8.43;4.93;;;14.90;1.00;;;;;;5137755;27;20251;-48
2023/05/27 03:54:23;;;;;;;9.97;5.23;;;14.80;1.00;;;;;;5138001;27;20183;-48
2023/05/27 03:56:50;;;;;;;6.30;4.47;;;14.90;1.00;;;;;;5138486;27;20569;-46
2023/05/27 03:59:17;;;;;;;8.10;5.37;;;14.90;1.00;;;;;;5138561;27;20222;-50
2023/05/27 04:01:44;;;;;;;12.20;4.83;;;14.90;1.00;;;;;;5138220;27;20468;-46
2023/05/27 04:04:09;;;;;;;11.00;4.67;;;14.80;1.00;;;;;;5138560;27;20429;-48
2023/05/27 04:06:35;;;;;;;6.40;3.97;;;14.80;1.00;;;;;;5138678;27;20444;-49
2023/05/27 04:09:02;;;;;;;11.90;5.63;;;14.70;1.00;;;;;;5138330;27;20409;-46
2023/05/27 04:11:29;;;;;;;7.50;5.37;;;14.70;1.00;;;;;;5139086;27;20537;-46
2023/05/27 04:13:54;;;;;;;11.70;6.83;;;14.70;1.00;;;;;;5137128;27;20432;-48
2023/05/27 04:16:21;;;;;;;9.00;4.83;;;14.70;1.00;;;;;;5137221;27;20412;-49
2023/05/27 04:18:48;;;;;;;10.57;4.80;;;14.60;1.00;;;;;;5137413;27;20187;-46
2023/05/27 04:21:15;;;;;;;8.07;6.20;;;14.70;1.00;;;;;;5136653;27;20479;-48
2023/05/27 04:23:41;;;;;;;7.90;4.97;;;14.70;1.00;;;;;;5136785;27;20413;-49
2023/05/27 04:26:06;;;;;;;8.83;4.90;;;14.70;1.00;;;;;;5137018;27;20674;-47
2023/05/27 04:28:34;;;;;;;9.30;4.30;;;14.80;1.00;;;;;;5136965;27;20690;-49
2023/05/27 04:30:59;;;;;;;8.60;4.43;;;14.80;1.00;;;;;;5136849;27;20215;-47
2023/05/27 04:33:26;;;;;;;8.73;4.67;;;14.80;1.00;;;;;;5136535;27;20536;-48
2023/05/27 04:35:53;;;;;;;6.30;4.43;;;14.80;1.00;;;;;;5136307;27;20175;-47
2023/05/27 04:38:20;;;;;;;7.50;4.90;;;14.70;1.00;;;;;;5135661;27;20444;-48
2023/05/27 04:40:52;;;;;;;8.70;5.20;;;14.70;1.00;;;;;;5135240;27;21040;-47
2023/05/27 04:43:23;;;;;;;8.23;4.70;;;14.80;1.00;;;;;;5134912;27;20425;-49
2023/05/27 04:45:49;;;;;;;11.93;5.67;;;14.80;1.00;;;;;;5135858;27;20452;-48
2023/05/27 04:48:15;;;;;;;8.50;4.20;;;14.90;1.00;;;;;;5135872;27;20456;-48
2023/05/27 04:50:41;;;;;;;8.93;4.77;;;15.10;1.00;;;;;;5137237;27;20261;-48
2023/05/27 04:53:08;;;;;;;8.90;5.10;;;15.10;1.00;;;;;;5137607;27;20436;-47
2023/05/27 04:55:34;;;;;;;8.80;4.60;;;15.20;1.00;;;;;;5136220;27;20727;-47
2023/05/27 04:58:03;;;;;;;6.93;4.67;;;15.20;1.00;;;;;;5136588;27;20436;-47
2023/05/27 05:00:38;;;;;;;6.70;4.83;;;15.20;1.00;;;;;;5136431;27;20500;-49
2023/05/27 05:03:05;;;;;;;9.90;4.50;;;15.20;1.00;;;;;;5136405;28;20755;-46
2023/05/27 05:05:31;;;;;;;8.60;4.80;;;15.30;1.00;;;;;;5136367;27;20437;-47
2023/05/27 05:07:57;;;;;;;10.27;5.27;;;15.30;1.00;;;;;;5136445;27;20436;-51
2023/05/27 05:10:22;;;;;;;9.20;4.97;;;15.40;1.00;;;;;;5136831;28;20187;-49
2023/05/27 05:12:48;;;;;;;10.17;4.87;;;15.40;1.00;;;;;;5133898;27;20217;-48
2023/05/27 05:15:14;;;;;;;12.17;6.57;;;15.40;1.00;;;;;;5117737;27;20186;-46
2023/05/27 05:17:39;;;;;;;9.37;4.73;;;15.50;1.00;;;;;;5137202;27;20694;-47
2023/05/27 05:20:06;;;;;;;9.33;5.30;;;15.50;1.00;;;;;;5135961;27;20211;-48
2023/05/27 05:22:32;;;;;;;9.70;4.60;;;15.50;1.00;;;;;;5135972;27;20175;-50
2023/05/27 05:24:57;;;;;;;9.10;4.80;;;15.60;1.00;;;;;;5134501;27;20497;-48
2023/05/27 05:27:24;;;;;;;10.00;5.17;;;15.70;1.00;;;;;;5134550;27;20202;-46
2023/05/27 05:29:50;;;;;;;10.90;5.20;;;15.80;1.00;;;;;;5135991;27;20175;-48
2023/05/27 05:32:16;;;;;;;7.70;4.80;;;15.90;1.00;;;;;;5135695;27;20489;-46
2023/05/27 05:34:43;;;;;;;7.80;4.87;;;15.90;1.00;;;;;;5136799;28;20232;-50
2023/05/27 05:37:10;;;;;;;8.30;4.57;;;16.00;1.00;;;;;;5136504;27;20193;-49
2023/05/27 05:39:37;;;;;;;6.50;4.00;;;16.00;1.00;;;;;;5137265;27;20424;-48
2023/05/27 05:42:03;;;;;;;6.20;4.40;;;16.10;1.00;;;;;;5119252;27;20880;-47
2023/05/27 05:44:28;;;;;;;10.57;6.17;;;16.10;1.00;;;;;;5135937;27;20432;-48
2023/05/27 05:46:54;;;;;;;11.00;5.37;;;16.20;1.00;;;;;;5135811;27;20465;-48
2023/05/27 05:49:20;;;;;;;9.33;5.50;;;16.30;1.00;;;;;;5136008;27;20187;-47
2023/05/27 05:51:45;;;;;;;11.03;5.97;;;16.40;1.00;;;;;;5136541;27;20183;-50
2023/05/27 05:54:11;;;;;;;9.47;4.57;;;16.50;1.00;;;;;;5135812;27;20175;-48
2023/05/27 05:56:37;;;;;;;13.77;5.93;;;16.60;1.00;;;;;;5135114;27;20187;-51
2023/05/27 05:59:02;;;;;;;10.00;4.77;;;16.70;1.00;;;;;;5135685;28;20251;-48
2023/05/27 06:01:28;;;;;;;8.53;4.23;;;16.90;1.00;;;;;;5134899;27;20207;-47
2023/05/27 06:03:55;;;;;;;8.00;5.43;;;17.00;1.00;;;;;;5135828;27;20617;-50
2023/05/27 06:06:20;;;;;;;7.63;4.97;;;17.10;1.00;;;;;;5101666;28;20195;-48
2023/05/27 06:08:46;;;;;;;7.97;4.90;;;17.20;1.00;;;;;;5138062;27;20731;-48
2023/05/27 06:11:12;;;;;;;9.73;5.00;;;17.30;1.00;;;;;;5139157;27;20652;-49
2023/05/27 06:13:37;;;;;;;10.27;5.27;;;17.50;1.00;;;;;;5137768;27;20188;-47
2023/05/27 06:16:03;;;;;;;10.83;5.63;;;17.60;1.00;;;;;;5137074;27;20179;-47
2023/05/27 06:18:29;;;;;;;7.53;4.80;;;17.70;1.00;;;;;;5120124;27;20175;-46
2023/05/27 06:20:54;;;;;;;9.73;5.33;;;17.90;1.00;;;;;;5138740;27;20479;-46
2023/05/27 06:23:20;;;;;;;7.00;4.67;;;18.10;1.00;;;;;;5139402;27;20530;-49
2023/05/27 06:25:46;;;;;;;7.40;4.80;;;18.10;1.00;;;;;;5139231;27;20171;-48
2023/05/27 06:28:11;;;;;;;14.30;5.97;;;18.10;1.00;;;;;;5139416;27;20573;-49
2023/05/27 06:30:37;;;;;;;10.83;5.53;;;18.20;1.00;;;;;;5139978;27;20186;-49
2023/05/27 06:33:03;;;;;;;9.30;5.30;;;18.30;1.00;;;;;;5139282;27;20261;-48
2023/05/27 06:35:29;;;;;;;10.40;5.10;;;18.30;1.00;;;;;;5121068;27;20428;-49
2023/05/27 06:37:54;;;;;;;7.40;4.53;;;18.30;1.00;;;;;;5139262;27;20169;-50
2023/05/27 06:40:20;;;;;;;10.37;5.20;;;18.40;1.00;;;;;;5120890;27;20182;-47
2023/05/27 06:42:46;;;;;;;14.80;6.07;;;18.50;1.00;;;;;;5139696;27;20175;-49
2023/05/27 06:45:11;;;;;;;15.00;5.93;;;18.60;1.00;;;;;;5139398;27;20580;-51
2023/05/27 06:47:38;;;;;;;7.40;4.27;;;18.60;1.00;;;;;;5140314;27;20286;-46
2023/05/27 06:50:04;;;;;;;8.10;5.17;;;18.70;1.00;;;;;;5139217;27;20175;-48
2023/05/27 06:52:30;;;;;;;9.90;6.23;;;18.80;1.00;;;;;;5139841;27;20412;-49
2023/05/27 06:54:55;;;;;;;10.80;5.40;;;19.00;1.00;;;;;;5139486;27;20528;-47
2023/05/27 06:57:21;;;;;;;9.50;5.27;;;19.10;1.00;;;;;;5138566;27;20698;-48
2023/05/27 06:59:47;;;;;;;10.00;5.90;;;19.30;1.00;;;;;;5139352;27;20307;-47
2023/05/27 07:02:12;;;;;;;8.23;4.93;;;19.50;1.00;;;;;;5137578;27;20214;-46
2023/05/27 07:04:38;;;;;;;8.90;6.17;;;19.60;1.00;;;;;;5137737;27;20563;-48
2023/05/27 07:07:04;;;;;;;10.27;5.40;;;19.70;1.00;;;;;;5138571;27;20187;-48
2023/05/27 07:09:29;;;;;;;10.87;5.60;;;19.80;1.00;;;;;;5139241;27;20353;-50
2023/05/27 07:11:55;;;;;;;9.17;5.10;;;19.90;1.00;;;;;;5136540;27;20179;-50
2023/05/27 07:14:20;;;;;;;10.00;5.60;;;20.10;1.00;;;;;;5138294;27;20179;-46
2023/05/27 07:16:47;;;;;;;8.53;5.50;;;20.10;1.00;;;;;;5138424;27;20182;-49
2023/05/27 07:19:12;;;;;;;8.53;5.00;;;20.10;1.00;;;;;;5138250;27;20175;-48
2023/05/27 07:21:38;;;;;;;10.30;5.60;;;20.20;1.00;;;;;;5138953;27;20495;-46
2023/05/27 07:24:04;;;;;;;9.53;5.63;;;20.40;1.00;;;;;;5137878;27;20175;-48
2023/05/27 07:26:30;;;;;;;10.13;5.10;;;20.70;1.00;;;;;;5138288;27;20179;-50
2023/05/27 07:29:00;;;;;;;12.23;5.40;;;20.90;1.00;;;;;;5136493;27;20199;-49
2023/05/27 07:31:26;;;;;;;11.90;5.67;;;20.90;1.00;;;;;;5136221;27;20409;-47
2023/05/27 07:33:52;;;;;;;15.27;6.60;;;21.20;1.00;;;;;;5136154;27;20469;-48
2023/05/27 07:36:17;;;;;;;7.80;5.40;;;21.30;1.00;;;;;;5135849;27;20431;-48
2023/05/27 07:38:43;;;;;;;9.70;5.37;;;21.50;1.00;;;;;;5135006;27;20202;-48
2023/05/27 07:41:09;;;;;;;8.90;6.07;;;21.60;1.00;;;;;;5135712;27;20226;-50
2023/05/27 07:43:35;;;;;;;9.07;5.30;;;21.70;1.00;;;;;;5135405;27;20163;-49
2023/05/27 07:46:00;;;;;;;10.33;4.93;;;21.90;1.00;;;;;;5137064;27;20888;-46
2023/05/27 07:48:27;;;;;;;8.57;5.23;;;22.10;1.00;;;;;;5136822;27;20244;-47
2023/05/27 07:50:53;;;;;;;10.53;7.00;;;22.20;1.00;;;;;;5136641;27;20179;-48
2023/05/27 07:53:18;;;;;;;9.60;5.90;;;22.30;1.00;;;;;;5136857;27;20440;-46
2023/05/27 07:55:44;;;;;;;9.77;5.40;;;22.30;1.00;;;;;;5136386;27;20211;-49
2023/05/27 07:58:10;;;;;;;7.67;5.37;;;22.40;1.00;;;;;;5135344;27;20250;-47
2023/05/27 08:00:35;;;;;;;9.37;5.60;;;22.60;1.00;;;;;;5136151;27;20385;-47
2023/05/27 08:03:01;;;;;;;9.50;6.70;;;22.60;1.00;;;;;;5136443;27;20186;-49
2023/05/27 08:05:26;;;;;;;9.70;7.03;;;22.60;1.00;;;;;;5135373;27;20183;-50
2023/05/27 08:07:52;;;;;;;8.80;6.17;;;22.70;1.00;;;;;;5136063;27;20198;-48
2023/05/27 08:10:18;;;;;;;12.03;6.13;;;22.60;1.00;;;;;;5135102;27;20171;-50
2023/05/27 08:12:43;;;;;;;11.07;6.60;;;22.70;1.00;;;;;;5136484;27;20332;-47
2023/05/27 08:15:09;;;;;;;13.30;6.70;;;22.70;1.00;;;;;;5136253;27;20198;-46
2023/05/27 08:17:34;;;;;;;8.20;5.80;;;22.80;1.00;;;;;;5136031;27;20182;-49
2023/05/27 08:20:00;;;;;;;9.43;5.90;;;22.80;1.00;;;;;;5135557;27;20167;-48
2023/05/27 08:22:26;;;;;;;12.03;7.10;;;22.80;1.00;;;;;;5136134;27;20206;-48
2023/05/27 08:24:51;;;;;;;8.27;5.83;;;22.60;1.00;;;;;;5136327;27;20179;-46
2023/05/27 08:27:17;;;;;;;8.60;6.10;;;22.50;1.00;;;;;;5135969;27;20177;-47
2023/05/27 08:29:43;;;;;;;7.50;5.80;;;22.60;1.00;;;;;;5134997;27;20257;-45
2023/05/27 08:32:09;;;;;;;10.83;6.13;;;22.90;1.00;;;;;;5133123;27;20457;-48
2023/05/27 08:34:35;;;;;;;7.60;5.93;;;23.10;1.00;;;;;;5133843;27;20412;-47
2023/05/27 08:37:01;;;;;;;9.27;6.07;;;23.20;1.00;;;;;;5134247;27;20923;-45
2023/05/27 08:39:27;;;;;;;12.17;7.50;;;23.40;1.00;;;;;;5134676;27;20470;-47
2023/05/27 08:41:53;;;;;;;9.00;6.70;;;23.20;1.00;;;;;;5134192;27;20495;-48
2023/05/27 08:44:21;;;;;;;8.67;5.80;;;23.10;1.00;;;;;;5135802;27;20466;-48
2023/05/27 08:46:49;;;;;;;9.33;6.43;;;23.40;1.00;;;;;;5136003;27;20469;-47
2023/05/27 08:49:15;;;;;;;9.80;7.13;;;23.70;1.00;;;;;;5135679;27;20828;-50
2023/05/27 08:51:41;;;;;;;9.97;6.53;;;24.10;1.00;;;;;;5135034;27;20416;-47
2023/05/27 08:54:08;;;;;;;12.10;7.17;;;24.30;1.00;;;;;;5100725;28;20186;-48
2023/05/27 08:56:35;;;;;;;10.20;7.40;;;24.60;1.00;;;;;;5117807;27;20420;-46
2023/05/27 08:59:01;;;;;;;11.40;6.70;;;24.50;1.00;;;;;;5135817;27;20503;-47
2023/05/27 09:01:27;;;;;;;10.83;7.40;;;24.40;1.00;;;;;;5135846;28;20566;-47
2023/05/27 09:03:55;;;;;;;9.17;7.20;;;24.30;1.00;;;;;;5135247;27;20427;-47
2023/05/27 09:06:21;;;;;;;9.83;7.33;;;23.90;1.00;;;;;;5136175;28;20752;-46
2023/05/27 09:08:46;;;;;;;11.43;7.17;;;23.80;1.00;;;;;;5135211;28;20428;-46
2023/05/27 09:11:26;;;;;;;9.43;7.80;;;24.20;1.00;;;;;;5136189;27;20179;-49
2023/05/27 09:13:54;;;;;;;8.13;6.00;;;24.40;1.00;;;;;;5134637;27;20198;-46
2023/05/27 09:16:21;;;;;;;14.40;8.47;;;24.60;1.00;;;;;;5135616;27;20423;-48
2023/05/27 09:18:47;;;;;;;9.20;7.20;;;24.70;1.00;;;;;;5116609;27;20429;-46
2023/05/27 09:21:13;;;;;;;10.20;6.60;;;24.80;1.00;;;;;;5134206;27;20533;-50
2023/05/27 09:23:39;;;;;;;9.37;6.90;;;25.20;1.00;;;;;;5135374;28;20432;-47
2023/05/27 09:26:12;;;;;;;8.63;6.97;;;25.50;1.00;;;;;;5135411;27;20435;-51
2023/05/27 09:28:39;;;;;;;8.00;7.20;;;25.40;1.00;;;;;;5116698;28;20694;-47
2023/05/27 09:31:06;;;;;;;8.90;6.90;;;25.40;1.00;;;;;;5135707;28;20428;-47
2023/05/27 09:33:37;;;;;;;9.23;7.03;;;25.70;1.00;;;;;;5136137;27;20466;-49
2023/05/27 09:36:04;;;;;;;8.00;6.90;;;26.00;1.00;;;;;;5135027;27;20436;-50
2023/05/27 09:38:33;;;;;;;7.30;6.60;;;26.40;1.00;;;;;;5135605;27;20417;-50
2023/05/27 09:41:00;;;;;;;12.37;7.80;;;26.60;1.00;;;;;;5134674;27;20480;-48
2023/05/27 09:43:26;;;;;;;10.03;7.37;;;26.90;1.00;;;;;;5137897;27;20422;-47
2023/05/27 09:46:02;;;;;;;9.63;6.93;;;27.00;1.00;;;;;;5120996;27;20432;-47
2023/05/27 09:48:30;;;;;;;8.77;6.80;;;27.20;1.00;;;;;;5139700;27;20420;-46
2023/05/27 09:50:57;;;;;;;10.80;6.90;;;27.30;1.00;;;;;;5139305;27;20420;-50
2023/05/27 09:53:24;;;;;;;8.80;7.70;;;27.40;1.00;;;;;;5140056;27;20424;-49
2023/05/27 09:55:52;;;;;;;8.13;6.87;;;27.50;1.00;;;;;;5139795;27;20391;-47
2023/05/27 09:58:18;;;;;;;9.07;6.27;;;27.70;1.00;;;;;;5139209;27;20492;-48
2023/05/27 10:00:45;;;;;;;8.00;6.90;;;27.90;1.00;;;;;;5099615;28;20463;-47
2023/05/27 10:03:13;;;;;;;9.90;7.23;;;28.10;1.00;;;;;;5115205;28;20392;-51
2023/05/27 10:05:40;;;;;;;9.50;8.17;;;28.20;1.00;;;;;;5116043;28;20889;-48
2023/05/27 10:08:06;;;;;;;8.93;6.70;;;28.10;1.00;;;;;;5098079;28;20494;-48
2023/05/27 10:10:32;;;;;;;7.90;7.07;;;28.20;1.00;;;;;;5114257;28;20418;-49
2023/05/27 10:12:59;;;;;;;7.10;6.40;;;28.20;1.00;;;;;;5115218;28;20207;-48
2023/05/27 10:15:31;;;;;;;10.77;7.40;;;28.10;1.00;;;;;;5097861;28;20714;-51
2023/05/27 10:18:01;;;;;;;8.20;7.40;;;28.60;1.00;;;;;;5116400;28;20736;-49
2023/05/27 10:20:37;;;;;;;9.03;7.47;;;28.70;1.00;;;;;;5115063;28;20529;-48
2023/05/27 10:23:30;;;;;;;10.60;7.67;;;28.80;1.00;;;;;;5115935;28;21283;-48
2023/05/27 10:26:00;;;;;;;10.30;7.27;;;29.10;1.00;;;;;;5110619;28;20433;-48
2023/05/27 10:28:27;;;;;;;9.63;7.33;;;29.40;1.00;;;;;;5116345;28;20528;-48
2023/05/27 10:30:53;;;;;;;10.53;6.87;;;29.50;1.00;;;;;;5116555;27;20400;-50
2023/05/27 10:33:33;;;;;;;10.43;7.50;;;29.70;1.00;;;;;;5114727;28;20496;-48
2023/05/27 10:36:10;;;;;;;7.83;6.67;;;29.70;1.00;;;;;;5117066;28;20453;-47
2023/05/27 10:38:36;;;;;;;9.60;7.67;;;29.30;1.00;;;;;;5114991;28;20605;-49
2023/05/27 10:41:04;;;;;;;8.43;7.30;;;29.30;1.00;;;;;;5114338;28;20565;-47
2023/05/27 10:43:31;;;;;;;8.87;7.97;;;29.60;1.00;;;;;;5113026;28;20410;-49
2023/05/27 10:46:11;;;;;;;8.63;7.37;;;30.20;1.00;;;;;;5115306;28;20495;-51
2023/05/27 10:48:39;;;;;;;9.37;8.30;;;30.50;1.00;;;;;;5114159;28;20509;-49
2023/05/27 10:51:06;;;;;;;7.77;7.07;;;30.70;1.00;;;;;;5115589;27;20410;-47
2023/05/27 10:53:34;;;;;;;9.23;7.93;;;30.90;1.00;;;;;;5112802;28;20469;-47
2023/05/27 10:56:00;;;;;;;9.43;7.80;;;31.10;1.00;;;;;;5114919;28;20639;-49
2023/05/27 10:58:25;;;;;;;11.37;7.70;;;31.30;1.00;;;;;;5116526;28;20409;-49
2023/05/27 11:00:53;;;;;;;8.60;7.70;;;31.60;1.00;;;;;;5135350;27;20313;-48
2023/05/27 11:03:27;;;;;;;9.80;7.40;;;31.30;1.00;;;;;;5138477;27;20217;-48
2023/05/27 11:06:06;;;;;;;8.57;6.90;;;31.40;1.00;;;;;;5136653;27;20423;-49
2023/05/27 11:08:33;;;;;;;7.77;6.87;;;31.60;1.00;;;;;;5118572;27;20395;-49
2023/05/27 11:11:09;;;;;;;8.97;7.30;;;31.90;1.00;;;;;;5134889;27;20432;-48
2023/05/27 11:13:40;;;;;;;7.83;7.00;;;32.10;1.00;;;;;;5134346;27;20398;-50
2023/05/27 11:16:06;;;;;;;8.37;7.57;;;31.70;1.00;;;;;;5135896;27;20416;-49
2023/05/27 11:18:36;;;;;;;12.47;8.50;;;31.80;1.00;;;;;;5134532;27;20399;-50
2023/05/27 11:21:04;;;;;;;7.50;6.77;;;32.00;1.00;;;;;;5135384;27;20439;-49
2023/05/27 11:23:48;;;;;;;9.63;7.90;;;32.10;1.00;;;;;;5135795;27;20395;-47
2023/05/27 11:26:19;;;;;;;11.13;8.60;;;31.80;1.00;;;;;;5135819;27;20406;-49
2023/05/27 11:28:46;;;;;;;8.80;7.90;;;31.40;1.00;;;;;;5136384;27;20726;-50
2023/05/27 11:31:12;;;;;;;9.33;8.40;;;30.90;1.00;;;;;;5136201;27;20375;-56
2023/05/27 11:33:42;;;;;;;8.23;7.33;;;30.20;1.00;;;;;;5117767;27;20689;-48
2023/05/27 11:36:11;;;;;;;8.13;7.33;;;30.10;1.00;;;;;;5118479;27;20440;-47
2023/05/27 11:38:51;;;;;;;10.83;8.00;;;30.40;1.00;;;;;;5137214;27;20421;-49
2023/05/27 11:41:20;;;;;;;12.40;8.60;;;31.10;1.00;;;;;;5137119;27;20534;-48
2023/05/27 11:43:56;;;;;;;7.73;6.93;;;31.60;1.00;;;;;;5135883;27;20805;-49
2023/05/27 11:46:22;;;;;;;10.30;8.20;;;31.70;1.00;;;;;;5136230;27;20394;-52
2023/05/27 11:48:48;;;;;;;8.97;7.70;;;32.10;1.00;;;;;;5115920;27;20428;-50
2023/05/27 11:51:14;;;;;;;9.73;7.47;;;32.30;1.00;;;;;;5134549;27;20420;-49
2023/05/27 11:53:41;;;;;;;9.07;8.10;;;32.10;1.00;;;;;;5134446;27;20507;-49
2023/05/27 11:56:07;;;;;;;8.83;7.93;;;31.90;1.00;;;;;;5131821;27;20859;-49
2023/05/27 11:58:33;;;;;;;10.17;7.50;;;31.40;1.00;;;;;;5136297;27;20478;-47
2023/05/27 12:00:59;;;;;;;9.57;8.40;;;30.60;1.00;;;;;;5134552;27;20782;-48
2023/05/27 12:03:25;;;;;;;9.57;8.57;;;30.70;1.00;;;;;;5132572;27;20407;-51
2023/05/27 12:05:50;;;;;;;8.40;7.67;;;30.80;1.00;;;;;;5133688;27;20172;-48
2023/05/27 12:08:16;;;;;;;7.70;7.00;;;31.00;1.00;;;;;;5134417;27;20179;-50
2023/05/27 12:10:41;;;;;;;8.87;8.07;;;31.60;1.00;;;;;;5133081;27;20243;-48
2023/05/27 12:13:07;;;;;;;9.40;7.97;;;32.00;1.00;;;;;;5135784;27;20182;-48
2023/05/27 12:15:33;;;;;;;8.50;7.70;;;32.10;1.00;;;;;;5136258;27;20179;-51
2023/05/27 12:17:58;;;;;;;7.37;6.60;;;32.30;1.00;;;;;;5136083;27;20266;-51
2023/05/27 12:20:27;;;;;;;8.47;7.70;;;32.70;1.00;;;;;;5136965;27;20175;-48
2023/05/27 12:22:53;;;;;;;9.57;8.13;;;32.70;1.00;;;;;;5135142;27;20509;-49
2023/05/27 12:25:19;;;;;;;9.43;8.13;;;32.10;1.00;;;;;;5134488;27;20835;-52
2023/05/27 12:27:45;;;;;;;8.70;7.90;;;32.00;1.00;;;;;;5134858;27;20432;-50
2023/05/27 12:30:12;;;;;;;9.60;8.30;;;32.20;1.00;;;;;;5134635;27;20554;-48
2023/05/27 12:32:41;;;;;;;8.70;7.40;;;32.30;1.00;;;;;;5136073;27;20179;-52
2023/05/27 12:35:08;;;;;;;8.43;7.63;;;32.80;1.00;;;;;;5100456;27;20436;-49
2023/05/27 12:37:33;;;;;;;9.47;7.67;;;33.10;1.00;;;;;;5136306;27;20408;-54
2023/05/27 12:39:59;;;;;;;9.23;8.20;;;33.10;1.00;;;;;;5135290;27;20401;-50
2023/05/27 12:42:24;;;;;;;10.23;7.83;;;32.80;1.00;;;;;;5134826;27;20211;-51
2023/05/27 12:44:50;;;;;;;9.60;8.03;;;32.50;1.00;;;;;;5135063;27;20248;-51
2023/05/27 12:47:15;;;;;;;9.47;8.47;;;32.50;1.00;;;;;;5135527;27;20178;-48
2023/05/27 12:49:42;;;;;;;8.97;8.07;;;32.40;1.00;;;;;;5135490;27;20497;-49
2023/05/27 12:52:08;;;;;;;8.50;7.70;;;32.50;1.00;;;;;;5134650;27;20270;-50
2023/05/27 12:54:33;;;;;;;8.13;7.40;;;32.50;1.00;;;;;;5134734;27;20489;-52
2023/05/27 12:57:04;;;;;;;8.20;7.50;;;32.20;1.00;;;;;;5134449;27;20179;-51
2023/05/27 12:59:31;;;;;;;9.83;8.83;;;32.40;1.00;;;;;;5134410;27;20238;-52